Time;durP1;ratioP1;P1;durP2;ratioP2;P2;SDS_P1;SDS_P2;PMS_P1;PMS_P2;Temp;Humidity;BMP_temperature;BMP_pressure;BME280_temperature;BME280_humidity;BME280_pressure;Samples;Min_cycle;Max_cycle;Signal;HPM_P1;HPM_P2
2021/01/25 00:00:10;;;;;;;1.23;1.00;;;7.30;60.20;;;;;;4990079;28;20466;-82
2021/01/25 00:02:36;;;;;;;1.08;0.68;;;;;;;;;;4991145;28;20049;-82
2021/01/25 00:05:02;;;;;;;0.95;0.82;;;7.20;82.20;;;;;;4989530;28;20027;-82
2021/01/25 00:07:28;;;;;;;0.70;0.60;;;;;;;;;;5008481;28;20029;-83
2021/01/25 00:09:55;;;;;;;0.57;0.57;;;;;;;;;;4991646;28;20269;-83
2021/01/25 00:12:21;;;;;;;1.13;1.05;;;;;;;;;;4992312;28;20034;-82
2021/01/25 00:14:47;;;;;;;1.33;1.02;;;;;;;;;;4993267;28;20036;-82
2021/01/25 00:17:13;;;;;;;1.38;1.20;;;;;;;;;;4988839;28;20105;-82
2021/01/25 00:19:39;;;;;;;2.17;0.70;;;;;;;;;;4995103;28;20101;-82
2021/01/25 00:22:05;;;;;;;2.13;1.40;;;;;;;;;;4993392;28;20030;-82
2021/01/25 00:24:31;;;;;;;1.35;0.80;;;;;;;;;;4991995;28;20026;-82
2021/01/25 00:26:57;;;;;;;0.98;0.65;;;;;;;;;;4992061;28;20452;-82
2021/01/25 00:29:23;;;;;;;2.47;0.80;;;;;;;;;;4989397;28;20035;-83
2021/01/25 00:31:49;;;;;;;2.88;0.90;;;;;;;;;;4998128;28;20097;-82
2021/01/25 00:34:15;;;;;;;1.15;0.75;;;;;;;;;;4996605;28;20474;-83
2021/01/25 00:36:41;;;;;;;1.13;0.60;;;;;;;;;;4995552;28;20057;-82
2021/01/25 00:39:07;;;;;;;1.20;0.52;;;;;;;;;;4995509;28;20021;-83
2021/01/25 00:41:33;;;;;;;0.95;0.70;;;;;;;;;;4994510;28;20113;-82
2021/01/25 00:43:59;;;;;;;0.60;0.60;;;;;;;;;;4996145;28;20023;-82
2021/01/25 00:46:25;;;;;;;0.70;0.63;;;;;;;;;;4998105;28;20196;-82
2021/01/25 00:48:51;;;;;;;3.30;1.05;;;;;;;;;;4995425;28;20035;-82
2021/01/25 00:51:17;;;;;;;0.70;0.60;;;;;;;;;;4995058;28;20046;-82
2021/01/25 00:53:43;;;;;;;1.25;0.93;;;;;;;;;;4994676;28;20053;-82
2021/01/25 00:56:13;;;;;;;1.52;1.10;;;;;;;;;;4994225;28;20571;-82
2021/01/25 00:58:39;;;;;;;0.88;0.80;;;6.80;58.80;;;;;;4998901;28;20511;-83
2021/01/25 01:01:05;;;;;;;0.93;0.85;;;;;;;;;;4992906;28;20038;-82
2021/01/25 01:03:31;;;;;;;0.75;0.70;;;;;;;;;;4989584;28;20053;-82
2021/01/25 01:05:58;;;;;;;0.70;0.70;;;;;;;;;;4995242;28;20095;-82
2021/01/25 01:08:24;;;;;;;1.40;0.90;;;6.90;57.90;;;;;;4990835;28;20050;-82
2021/01/25 01:10:50;;;;;;;0.85;0.70;;;;;;;;;;4997756;28;20030;-82
2021/01/25 01:13:16;;;;;;;0.55;0.55;;;;;;;;;;4996806;28;20054;-82
2021/01/25 01:15:42;;;;;;;0.80;0.60;;;;;;;;;;4996367;28;20056;-83
2021/01/25 01:18:08;;;;;;;1.15;0.80;;;;;;;;;;4995961;28;20041;-82
2021/01/25 01:20:33;;;;;;;0.75;0.65;;;6.90;79.30;;;;;;4993883;28;20034;-82
2021/01/25 01:22:59;;;;;;;0.95;0.75;;;;;;;;;;4993893;28;20025;-82
2021/01/25 01:25:25;;;;;;;3.38;0.98;;;;;;;;;;4997569;28;20089;-82
2021/01/25 01:27:51;;;;;;;0.63;0.50;;;;;;;;;;4996006;28;20038;-82
2021/01/25 01:30:18;;;;;;;1.20;0.80;;;;;;;;;;4992595;28;20400;-82
2021/01/25 01:32:43;;;;;;;1.45;0.68;;;;;;;;;;4982770;28;20030;-82
2021/01/25 01:35:10;;;;;;;1.70;0.90;;;;;;;;;;4993192;28;20508;-83
2021/01/25 01:37:36;;;;;;;2.05;1.10;;;;;;;;;;4996778;28;20042;-82
2021/01/25 01:40:08;;;;;;;5.72;1.27;;;6.50;55.50;;;;;;4995567;28;20041;-82
2021/01/25 01:42:34;;;;;;;0.47;0.47;;;;;;;;;;4993862;28;20054;-82
2021/01/25 01:45:03;;;;;;;1.70;0.95;;;;;;;;;;4995630;28;20109;-82
2021/01/25 01:47:29;;;;;;;1.02;1.00;;;;;;;;;;4991200;28;20030;-83
2021/01/25 01:49:56;;;;;;;0.68;0.60;;;;;;;;;;4995628;28;20089;-82
2021/01/25 01:52:22;;;;;;;1.65;1.05;;;;;;;;;;5009068;28;20029;-82
2021/01/25 01:54:50;;;;;;;0.77;0.77;;;6.40;53.30;;;;;;4997487;28;20050;-83
2021/01/25 01:57:16;;;;;;;2.67;0.77;;;;;;;;;;4995525;28;20034;-83
2021/01/25 01:59:42;;;;;;;0.57;0.57;;;;;;;;;;4993586;28;20025;-83
2021/01/25 02:02:08;;;;;;;1.58;0.82;;;;;;;;;;4990721;28;20049;-83
2021/01/25 02:04:34;;;;;;;0.40;0.40;;;6.60;51.20;;;;;;5011124;28;20019;-82
2021/01/25 02:07:03;;;;;;;0.35;0.35;;;6.50;51.60;;;;;;4992151;28;20042;-82
2021/01/25 02:09:31;;;;;;;0.65;0.65;;;6.30;50.90;;;;;;4987720;28;20125;-82
2021/01/25 02:11:57;;;;;;;0.90;0.70;;;;;;;;;;4994291;28;20018;-83
2021/01/25 02:14:24;;;;;;;0.35;0.35;;;;;;;;;;4990297;28;20026;-82
2021/01/25 02:16:50;;;;;;;0.90;0.75;;;;;;;;;;4996776;28;20026;-83
2021/01/25 02:19:27;;;;;;;0.52;0.52;;;6.20;49.90;;;;;;5009357;28;20031;-82
2021/01/25 02:22:20;;;;;;;1.17;0.63;;;6.10;48.80;;;;;;4991921;28;20042;-83
2021/01/25 02:25:13;;;;;;;6.25;1.52;;;6.20;49.20;;;;;;4994712;28;20030;-83
2021/01/25 02:27:43;;;;;;;0.43;0.43;;;6.30;48.50;;;;;;4989046;28;20038;-82
2021/01/25 02:30:10;;;;;;;0.50;0.50;;;6.30;48.50;;;;;;4993701;28;20038;-83
2021/01/25 02:32:38;;;;;;;0.77;0.55;;;6.30;48.40;;;;;;4991658;28;20023;-83
2021/01/25 02:35:07;;;;;;;0.57;0.57;;;6.20;47.50;;;;;;4991988;28;20039;-83
2021/01/25 02:37:35;;;;;;;20.73;0.82;;;4.60;46.00;;;;;;5010526;28;20038;-83
2021/01/25 02:40:03;;;;;;;0.22;0.22;;;6.10;48.00;;;;;;4994380;28;20026;-83
2021/01/25 02:42:29;;;;;;;;;;;6.10;47.50;;;;;;4994925;28;20018;-82
2021/01/25 02:44:55;;;;;;;0.40;0.40;;;6.00;47.50;;;;;;4994569;28;19982;-83
2021/01/25 02:47:22;;;;;;;0.60;0.60;;;6.10;47.70;;;;;;4989335;28;20153;-83
2021/01/25 02:49:48;;;;;;;2.08;0.70;;;;;;;;;;4996369;28;20046;-82
2021/01/25 02:52:14;;;;;;;2.90;1.13;;;;;;;;;;4994352;28;20037;-83
2021/01/25 02:54:41;;;;;;;1.83;1.00;;;;;;;;;;4992745;28;20042;-82
2021/01/25 02:57:11;;;;;;;2.92;0.93;;;5.90;47.70;;;;;;4995408;28;20022;-82
2021/01/25 02:59:39;;;;;;;0.40;0.40;;;5.90;47.90;;;;;;4991130;28;20419;-83
2021/01/25 03:02:07;;;;;;;0.47;0.47;;;;;;;;;;4991366;28;20061;-82
2021/01/25 03:04:38;;;;;;;1.00;0.55;;;5.90;68.30;;;;;;4994670;28;20038;-83
2021/01/25 03:07:05;;;;;;;0.32;0.32;;;;;;;;;;4993073;28;20315;-83
2021/01/25 03:09:32;;;;;;;1.67;0.75;;;5.80;48.60;;;;;;4993879;28;20038;-82
2021/01/25 03:11:58;;;;;;;0.50;0.50;;;;;;;;;;4992976;28;20107;-82
2021/01/25 03:14:24;;;;;;;0.47;0.38;;;;;;;;;;4989247;28;20053;-82
2021/01/25 03:16:50;;;;;;;1.05;0.50;;;;;;;;;;4995768;28;20081;-82
2021/01/25 03:19:16;;;;;;;1.13;1.02;;;;;;;;;;4994489;28;20534;-82
2021/01/25 03:21:50;;;;;;;0.52;0.50;;;6.00;69.50;;;;;;4994138;28;20121;-82
2021/01/25 03:24:16;;;;;;;0.60;0.52;;;5.90;49.00;;;;;;4992575;28;20033;-82
2021/01/25 03:26:42;;;;;;;0.47;0.47;;;;;;;;;;4992394;28;20509;-82
2021/01/25 03:29:10;;;;;;;0.85;0.50;;;6.00;48.20;;;;;;4991099;28;20043;-82
2021/01/25 03:31:37;;;;;;;0.93;0.63;;;6.00;47.90;;;;;;4995058;28;20057;-82
2021/01/25 03:34:04;;;;;;;0.43;0.30;;;;;;;;;;4992768;28;20467;-82
2021/01/25 03:36:30;;;;;;;0.30;0.30;;;;;;;;;;4992342;28;20384;-82
2021/01/25 03:38:56;;;;;;;0.45;0.45;;;6.40;47.20;;;;;;4993131;28;20069;-82
2021/01/25 03:41:23;;;;;;;0.75;0.40;;;;;;;;;;4988646;28;20077;-82
2021/01/25 03:43:49;;;;;;;1.20;0.60;;;;;;;;;;4995826;28;20070;-83
2021/01/25 03:46:15;;;;;;;0.40;0.40;;;;;;;;;;4993831;28;20101;-82
2021/01/25 03:48:41;;;;;;;0.30;0.30;;;;;;;;;;4997927;28;20124;-82
2021/01/25 03:51:07;;;;;;;0.52;0.50;;;;;;;;;;5000974;28;20581;-82
2021/01/25 03:53:33;;;;;;;1.35;0.47;;;;;;;;;;4990653;28;20041;-82
2021/01/25 03:55:59;;;;;;;12.93;4.45;;;;;;;;;;4993045;28;20037;-82
2021/01/25 03:58:25;;;;;;;0.90;0.90;;;;;;;;;;4994396;28;20030;-83
2021/01/25 04:00:51;;;;;;;0.68;0.63;;;;;;;;;;4990063;28;20022;-82
2021/01/25 04:03:17;;;;;;;1.52;0.60;;;;;;;;;;4985962;28;20037;-82
2021/01/25 04:05:43;;;;;;;0.40;0.40;;;;;;;;;;4994620;28;20036;-82
2021/01/25 04:08:09;;;;;;;1.90;0.70;;;;;;;;;;4994302;28;20486;-83
2021/01/25 04:10:35;;;;;;;0.73;0.70;;;;;;;;;;4999598;28;20026;-82
2021/01/25 04:13:01;;;;;;;5.57;0.60;;;;;;;;;;4996196;28;20076;-83
2021/01/25 04:15:27;;;;;;;2.08;0.50;;;;;;;;;;4996114;28;20100;-82
2021/01/25 04:17:53;;;;;;;3.20;1.60;;;;;;;;;;4997376;28;20070;-82
2021/01/25 04:20:19;;;;;;;2.42;0.85;;;;;;;;;;4976633;28;20535;-82
2021/01/25 04:22:45;;;;;;;0.90;0.82;;;;;;;;;;4999672;28;20380;-82
2021/01/25 04:25:12;;;;;;;0.82;0.40;;;6.50;67.60;;;;;;4993502;28;20046;-83
2021/01/25 04:27:38;;;;;;;0.32;0.32;;;;;;;;;;4992055;28;20029;-82
2021/01/25 04:30:11;;;;;;;0.30;0.30;;;6.10;46.20;;;;;;4995604;28;20038;-82
2021/01/25 04:32:38;;;;;;;11.23;0.65;;;5.90;47.00;;;;;;4995185;28;20026;-82
2021/01/25 04:35:06;;;;;;;1.67;0.77;;;5.90;68.10;;;;;;4996251;28;20026;-82
2021/01/25 04:37:32;;;;;;;0.65;0.65;;;;;;;;;;4997227;28;20105;-82
2021/01/25 04:39:58;;;;;;;1.27;0.68;;;;;;;;;;4996234;28;20086;-83
2021/01/25 04:42:25;;;;;;;0.50;0.43;;;5.90;47.10;;;;;;4997074;28;20026;-82
2021/01/25 04:44:51;;;;;;;0.65;0.63;;;;;;;;;;4995549;28;20036;-82
2021/01/25 04:47:21;;;;;;;0.40;0.40;;;5.80;47.10;;;;;;4992189;28;20189;-82
2021/01/25 04:49:48;;;;;;;1.48;0.60;;;;;;;;;;5005481;28;20057;-82
2021/01/25 04:52:14;;;;;;;4.47;0.50;;;;;;;;;;4997040;28;20030;-83
2021/01/25 04:54:40;;;;;;;3.10;1.00;;;6.10;47.00;;;;;;4994791;28;20033;-82
2021/01/25 04:57:07;;;;;;;1.75;1.27;;;;;;;;;;4996490;28;20599;-82
2021/01/25 04:59:34;;;;;;;8.65;1.38;;;;;;;;;;4992768;28;20106;-82
2021/01/25 05:02:00;;;;;;;0.40;0.40;;;;;;;;;;4995863;28;20030;-83
2021/01/25 05:04:26;;;;;;;1.55;0.88;;;;;;;;;;4997989;28;20029;-82
2021/01/25 05:06:52;;;;;;;1.85;1.15;;;;;;;;;;4995363;28;20101;-82
2021/01/25 05:09:18;;;;;;;5.82;2.25;;;;;;;;;;4995788;28;20030;-82
2021/01/25 05:11:44;;;;;;;2.90;1.55;;;;;;;;;;4993885;28;20036;-82
2021/01/25 05:14:09;;;;;;;2.13;1.60;;;5.70;67.70;;;;;;4993521;28;20088;-82
2021/01/25 05:16:35;;;;;;;0.73;0.68;;;;;;;;;;4997869;28;20029;-82
2021/01/25 05:19:04;;;;;;;0.32;0.32;;;5.70;46.00;;;;;;4994714;28;20031;-82
2021/01/25 05:21:36;;;;;;;0.43;0.43;;;5.60;46.20;;;;;;4994358;28;20566;-82
2021/01/25 05:24:06;;;;;;;2.30;0.73;;;5.40;46.70;;;;;;4994841;28;20092;-82
2021/01/25 05:26:39;;;;;;;4.65;0.40;;;5.40;47.50;;;;;;4993189;28;20483;-82
2021/01/25 05:29:05;;;;;;;0.40;0.40;;;;;;;;;;4994694;28;20092;-82
2021/01/25 05:31:31;;;;;;;0.30;0.30;;;;;;;;;;4995974;28;20030;-82
2021/01/25 05:33:58;;;;;;;8.55;0.40;;;;;;;;;;4995942;28;20030;-82
2021/01/25 05:36:30;;;;;;;1.17;0.52;;;5.60;68.40;;;;;;4994623;28;20030;-82
2021/01/25 05:38:56;;;;;;;1.42;1.33;;;;;;;;;;4995836;28;20463;-82
2021/01/25 05:41:22;;;;;;;0.68;0.65;;;6.10;67.70;;;;;;4990357;28;20026;-82
2021/01/25 05:43:49;;;;;;;0.88;0.50;;;5.90;45.40;;;;;;5005255;28;20066;-82
2021/01/25 05:46:18;;;;;;;1.42;0.63;;;5.60;45.80;;;;;;4994611;28;20049;-82
2021/01/25 05:48:55;;;;;;;0.57;0.57;;;5.30;46.20;;;;;;4994498;28;20514;-82
2021/01/25 05:51:21;;;;;;;1.45;0.63;;;;;;;;;;4995246;28;20514;-82
2021/01/25 05:53:48;;;;;;;9.13;0.63;;;4.90;47.20;;;;;;4992322;28;20112;-82
2021/01/25 05:56:15;;;;;;;5.73;0.60;;;5.00;47.10;;;;;;4992120;28;20066;-83
2021/01/25 05:58:41;;;;;;;1.00;0.40;;;;;;;;;;4998234;28;20038;-82
2021/01/25 06:01:08;;;;;;;3.08;0.98;;;5.30;46.00;;;;;;4995283;28;20313;-82
2021/01/25 06:03:38;;;;;;;0.30;0.30;;;5.30;45.60;;;;;;4992279;28;20507;-82
2021/01/25 06:06:07;;;;;;;1.65;0.63;;;5.40;45.70;;;;;;4985320;28;20037;-82
2021/01/25 06:08:48;;;;;;;0.55;0.52;;;5.60;45.40;;;;;;4991054;28;20038;-82
2021/01/25 06:11:14;;;;;;;3.92;0.80;;;;;;;;;;4991421;28;20165;-82
2021/01/25 06:14:12;;;;;;;2.20;0.55;;;5.50;45.40;;;;;;4996636;28;20458;-82
2021/01/25 06:16:39;;;;;;;0.30;0.30;;;;;;;;;;4997386;28;20026;-83
2021/01/25 06:19:08;;;;;;;0.38;0.38;;;5.30;45.10;;;;;;4993929;28;20030;-83
2021/01/25 06:21:37;;;;;;;1.00;0.60;;;5.60;44.60;;;;;;4991544;28;20121;-83
2021/01/25 06:24:09;;;;;;;0.60;0.45;;;5.60;43.90;;;;;;4985272;28;20041;-82
2021/01/25 06:26:36;;;;;;;0.40;0.40;;;5.20;44.30;;;;;;4992484;28;20023;-83
2021/01/25 06:29:07;;;;;;;1.00;0.88;;;5.20;43.90;;;;;;4993193;28;20042;-82
2021/01/25 06:31:40;;;;;;;2.20;0.43;;;4.90;62.80;;;;;;4995057;28;20050;-82
2021/01/25 06:34:09;;;;;;;0.40;0.40;;;4.80;44.50;;;;;;4993029;28;20038;-84
2021/01/25 06:36:36;;;;;;;0.40;0.40;;;;;;;;;;4989823;28;20049;-82
2021/01/25 06:39:06;;;;;;;3.03;0.90;;;5.30;43.80;;;;;;4990521;28;20039;-83
2021/01/25 06:41:36;;;;;;;0.65;0.65;;;5.30;44.10;;;;;;4987947;28;20034;-82
2021/01/25 06:44:03;;;;;;;6.32;0.90;;;5.30;43.70;;;;;;4990536;28;20026;-82
2021/01/25 06:46:32;;;;;;;0.50;0.50;;;4.90;44.40;;;;;;4990547;28;20038;-83
2021/01/25 06:48:58;;;;;;;0.43;0.43;;;5.00;44.10;;;;;;5024782;28;20723;-82
2021/01/25 06:51:25;;;;;;;2.50;0.52;;;;;;;;;;4990683;28;20157;-82
2021/01/25 06:53:53;;;;;;;0.30;0.30;;;5.40;43.60;;;;;;4990787;28;20037;-82
2021/01/25 06:56:19;;;;;;;0.57;0.57;;;;;;;;;;4988113;28;20376;-83
2021/01/25 06:58:49;;;;;;;0.68;0.55;;;5.30;43.20;;;;;;4992438;28;20030;-82
2021/01/25 07:01:22;;;;;;;2.80;0.55;;;4.80;44.20;;;;;;4989772;28;20038;-83
2021/01/25 07:03:51;;;;;;;2.45;0.47;;;;;;;;;;4990676;28;20030;-89
2021/01/25 07:06:18;;;;;;;0.40;0.40;;;4.70;45.20;;;;;;4991544;28;20023;-84
2021/01/25 07:08:56;;;;;;;0.30;0.30;;;4.40;67.40;;;;;;4988512;28;20033;-84
2021/01/25 07:11:26;;;;;;;0.50;0.50;;;4.80;45.20;;;;;;4972344;28;20447;-84
2021/01/25 07:13:53;;;;;;;1.20;0.50;;;5.20;43.80;;;;;;4994715;28;20026;-85
2021/01/25 07:16:19;;;;;;;0.35;0.35;;;;;;;;;;4992633;28;20030;-85
2021/01/25 07:18:49;;;;;;;0.40;0.40;;;;;;;;;;4989028;28;20038;-85
2021/01/25 07:21:17;;;;;;;0.30;0.30;;;5.20;43.70;;;;;;4984794;28;20172;-84
2021/01/25 07:23:45;;;;;;;2.88;0.40;;;5.50;43.10;;;;;;4989959;28;20042;-85
2021/01/25 07:26:12;;;;;;;2.92;0.43;;;5.30;43.30;;;;;;4989793;28;20034;-85
2021/01/25 07:28:38;;;;;;;1.73;0.70;;;;;;;;;;4993889;28;20038;-85
2021/01/25 07:31:04;;;;;;;0.85;0.85;;;;;;;;;;4989593;28;20389;-84
2021/01/25 07:33:30;;;;;;;1.05;0.68;;;;;;;;;;4999459;28;20026;-96
2021/01/25 07:35:58;;;;;;;1.13;0.65;;;5.80;64.30;;;;;;4996891;28;20510;-91
2021/01/25 07:38:27;;;;;;;0.52;0.52;;;5.90;42.30;;;;;;4989678;28;20028;-91
2021/01/25 07:40:57;;;;;;;1.15;0.60;;;6.00;63.80;;;;;;5010588;28;20188;-90
2021/01/25 07:43:25;;;;;;;1.63;1.10;;;6.00;42.30;;;;;;4992776;28;20042;-91
2021/01/25 07:45:51;;;;;;;11.35;1.17;;;;;;;;;;4999042;28;20034;-89
2021/01/25 07:48:18;;;;;;;1.45;1.08;;;;;;;;;;5000534;28;20521;-94
2021/01/25 07:50:54;;;;;;;4.53;1.23;;;6.10;41.60;;;;;;4991560;28;20070;-93
2021/01/25 07:53:21;;;;;;;8.48;0.95;;;;;;;;;;4989012;28;20034;-89
2021/01/25 07:55:47;;;;;;;1.33;0.82;;;;;;;;;;4994709;28;20388;-93
2021/01/25 07:58:13;;;;;;;1.58;1.48;;;;;;;;;;4991747;28;20462;-92
2021/01/25 08:00:42;;;;;;;2.70;1.15;;;;;;;;;;5002196;28;20030;-96
2021/01/25 08:03:30;;;;;;;1.45;0.70;;;5.90;41.60;;;;;;5008879;28;20034;-86
2021/01/25 08:05:59;;;;;;;0.65;0.57;;;6.30;42.70;;;;;;4993495;28;20041;-94
2021/01/25 08:08:28;;;;;;;2.45;1.20;;;;;;;;;;5003187;28;20077;-95
2021/01/25 08:10:55;;;;;;;0.60;0.60;;;;;;;;;;5006736;28;20048;-92
2021/01/25 08:13:46;;;;;;;0.63;0.63;;;5.60;42.50;;;;;;5005613;28;20105;-93
2021/01/25 08:16:17;;;;;;;3.58;1.15;;;5.50;42.30;;;;;;5005520;28;20420;-90
2021/01/25 08:19:07;;;;;;;2.20;0.82;;;5.70;42.00;;;;;;4990827;28;20456;-93
2021/01/25 08:21:39;;;;;;;3.58;0.70;;;5.90;41.50;;;;;;4996893;28;20046;-94
2021/01/25 08:24:08;;;;;;;1.58;0.80;;;6.00;41.20;;;;;;4996677;28;20041;-91
2021/01/25 08:26:34;;;;;;;0.68;0.50;;;;;;;;;;4972359;28;20022;-93
2021/01/25 08:29:21;;;;;;;0.30;0.30;;;5.80;41.40;;;;;;4991576;28;20765;-93
2021/01/25 08:31:47;;;;;;;0.93;0.73;;;;;;;;;;4994162;28;20081;-93
2021/01/25 08:34:31;;;;;;;0.52;0.50;;;6.80;41.00;;;;;;4990389;28;20394;-91
2021/01/25 08:37:13;;;;;;;2.50;0.95;;;7.60;63.00;;;;;;4995411;28;20115;-92
2021/01/25 08:39:44;;;;;;;0.80;0.80;;;8.20;37.40;;;;;;4997974;28;20037;-96
2021/01/25 08:42:18;;;;;;;0.80;0.60;;;8.60;38.10;;;;;;5010966;28;20022;-95
2021/01/25 08:44:55;;;;;;;2.53;1.58;;;9.20;36.20;;;;;;4991783;28;20089;-92
2021/01/25 08:47:30;;;;;;;2.08;0.73;;;9.60;34.80;;;;;;5002236;28;20030;-93
2021/01/25 08:49:56;;;;;;;0.50;0.50;;;9.80;33.50;;;;;;4971399;28;20535;-93
2021/01/25 08:52:31;;;;;;;4.05;0.90;;;9.80;33.20;;;;;;5006825;28;20065;-92
2021/01/25 08:55:42;;;;;;;2.55;0.60;;;9.70;55.10;;;;;;5002091;28;20057;-96
2021/01/25 08:58:34;;;;;;;3.10;0.68;;;10.10;32.10;;;;;;4998135;28;20045;-96
2021/01/25 09:01:00;;;;;;;2.50;0.73;;;;;;;;;;4985958;28;20062;-94
2021/01/25 09:03:26;;;;;;;9.10;1.15;;;;;;;;;;5003897;28;20418;-94
2021/01/25 09:05:54;;;;;;;3.65;0.88;;;10.70;31.00;;;;;;5026499;28;20034;-96
2021/01/25 09:08:20;;;;;;;0.50;0.50;;;;;;;;;;5008007;28;20034;-96
2021/01/25 09:10:47;;;;;;;3.17;1.45;;;;;;;;;;5015162;28;20090;-96
2021/01/25 09:13:13;;;;;;;4.97;0.80;;;;;;;;;;5010350;28;20030;-96
2021/01/25 09:15:39;;;;;;;6.45;2.05;;;;;;;;;;5009745;28;20072;-96
2021/01/25 09:18:07;;;;;;;6.63;0.82;;;;;;;;;;5008636;28;20515;-96
2021/01/25 09:20:33;;;;;;;0.70;0.70;;;;;;;;;;4986528;28;20111;-96
2021/01/25 09:22:59;;;;;;;1.40;0.88;;;;;;;;;;4997188;28;20031;-87
2021/01/25 09:25:25;;;;;;;0.35;0.35;;;;;;;;;;5013390;28;20415;-93
2021/01/25 09:27:51;;;;;;;4.25;1.08;;;;;;;;;;4994287;28;20025;-91
2021/01/25 09:30:18;;;;;;;4.68;1.10;;;11.50;29.20;;;;;;4991936;28;20049;-96
2021/01/25 09:32:44;;;;;;;2.58;0.70;;;;;;;;;;5090113;23;20095;-95
2021/01/25 09:35:11;;;;;;;6.75;1.00;;;;;;;;;;5008253;28;20090;-96
2021/01/25 09:37:37;;;;;;;2.55;0.95;;;11.80;50.30;;;;;;5194302;23;20057;-96
2021/01/25 09:40:05;;;;;;;3.90;1.73;;;11.50;29.70;;;;;;5018995;28;20034;-95
2021/01/25 09:42:31;;;;;;;0.98;0.77;;;;;;;;;;5018457;28;20054;-96
2021/01/25 09:44:57;;;;;;;2.08;0.88;;;;;;;;;;5017425;28;20038;-95
2021/01/25 09:47:23;;;;;;;1.75;0.50;;;;;;;;;;5014012;28;20026;-94
2021/01/25 09:49:49;;;;;;;0.55;0.50;;;;;;;;;;5014485;28;20072;-93
2021/01/25 09:52:15;;;;;;;2.38;1.05;;;;;;;;;;5012059;28;20053;-92
2021/01/25 09:54:42;;;;;;;2.95;1.70;;;;;;;;;;5009009;28;20027;-93
2021/01/25 09:57:10;;;;;;;3.00;1.25;;;;;;;;;;5205508;22;20061;-96
2021/01/25 10:02:12;;;;;;;2.83;0.77;;;;;;;;;;5041141;23;20054;-96
2021/01/25 10:04:41;;;;;;;4.40;0.73;;;;;;;;;;4995438;28;20054;-96
2021/01/25 10:07:07;;;;;;;1.25;0.70;;;;;;;;;;5417219;23;20477;-96
2021/01/25 10:14:32;;;;;;;3.65;0.75;;;;;;;;;;5045718;22;20020;-91
2021/01/25 10:17:00;;;;;;;0.45;0.45;;;;;;;;;;5011739;28;20514;-92
2021/01/25 10:19:26;;;;;;;1.02;0.70;;;;;;;;;;5013177;28;20418;-96
2021/01/25 10:21:52;;;;;;;3.45;2.15;;;;;;;;;;5017970;28;20014;-94
2021/01/25 10:24:18;;;;;;;0.88;0.70;;;;;;;;;;5013584;28;20037;-94
2021/01/25 10:26:44;;;;;;;0.40;0.40;;;;;;;;;;5014749;28;20002;-96
2021/01/25 10:29:10;;;;;;;3.20;1.30;;;;;;;;;;5445760;23;20060;-91
2021/01/25 10:31:36;;;;;;;3.17;0.73;;;9.00;34.80;;;;;;5012224;28;20379;-94
2021/01/25 10:34:02;;;;;;;1.10;0.70;;;;;;;;;;5010028;28;20207;-89
2021/01/25 10:36:28;;;;;;;0.82;0.70;;;;;;;;;;5011199;28;20041;-92
2021/01/25 10:38:54;;;;;;;2.20;0.90;;;;;;;;;;5011452;28;20299;-90
2021/01/25 10:41:20;;;;;;;1.60;1.35;;;;;;;;;;5012258;28;20479;-96
2021/01/25 10:43:46;;;;;;;1.67;0.90;;;;;;;;;;5014591;28;20513;-94
2021/01/25 10:46:14;;;;;;;1.13;0.50;;;8.30;35.90;;;;;;5013992;28;20080;-96
2021/01/25 10:48:40;;;;;;;;;;;8.40;35.80;;;;;;5022918;28;20602;-91
2021/01/25 10:51:07;;;;;;;0.50;0.50;;;;;;;;;;5011881;28;20170;-87
2021/01/25 10:53:33;;;;;;;1.00;0.93;;;;;;;;;;5010616;28;20120;-91
2021/01/25 10:55:59;;;;;;;1.40;0.90;;;;;;;;;;4992999;28;20157;-93
2021/01/25 10:58:25;;;;;;;2.05;0.70;;;;;;;;;;4976267;28;20026;-91
2021/01/25 11:00:52;;;;;;;0.30;0.30;;;;;;;;;;4976491;28;20034;-93
2021/01/25 11:03:18;;;;;;;1.27;0.65;;;;;;;;;;4982124;28;20050;-93
2021/01/25 11:05:44;;;;;;;0.57;0.57;;;;;;;;;;4986399;28;20053;-93
2021/01/25 11:08:10;;;;;;;0.90;0.85;;;;;;;;;;4998885;28;20034;-93
2021/01/25 11:10:36;;;;;;;0.77;0.77;;;;;;;;;;4981696;28;20035;-95
2021/01/25 11:13:02;;;;;;;8.27;1.23;;;;;;;;;;4980467;28;20026;-94
2021/01/25 11:15:28;;;;;;;0.68;0.60;;;;;;;;;;4999607;28;20034;-93
2021/01/25 11:17:54;;;;;;;0.50;0.43;;;;;;;;;;4991934;28;20034;-94
2021/01/25 11:20:20;;;;;;;0.32;0.32;;;;;;;;;;4991699;28;20042;-93
2021/01/25 11:22:46;;;;;;;1.27;0.90;;;;;;;;;;4993164;28;20022;-93
2021/01/25 11:25:13;;;;;;;1.35;0.88;;;;;;;;;;4996231;28;20031;-93
2021/01/25 11:27:39;;;;;;;1.08;0.52;;;;;;;;;;4976850;28;20045;-95
2021/01/25 11:30:06;;;;;;;1.17;0.65;;;7.90;36.70;;;;;;4981601;28;20149;-92
2021/01/25 11:32:32;;;;;;;2.45;0.68;;;;;;;;;;4990852;28;20018;-93
2021/01/25 11:34:58;;;;;;;2.05;0.80;;;;;;;;;;4992344;28;20035;-95
2021/01/25 11:37:24;;;;;;;7.57;1.45;;;;;;;;;;4979544;28;20037;-93
2021/01/25 11:39:50;;;;;;;0.75;0.75;;;;;;;;;;4974836;28;20050;-92
2021/01/25 11:42:16;;;;;;;2.00;0.82;;;;;;;;;;4976148;28;20054;-92
2021/01/25 11:44:42;;;;;;;1.25;0.85;;;;;;;;;;4990965;28;20125;-93
2021/01/25 11:47:08;;;;;;;0.70;0.70;;;;;;;;;;4990961;28;20061;-95
2021/01/25 11:49:34;;;;;;;2.55;1.10;;;;;;;;;;4998021;28;20042;-94
2021/01/25 11:52:02;;;;;;;1.17;0.85;;;;;;;;;;4994756;28;20081;-95
2021/01/25 11:54:28;;;;;;;0.60;0.60;;;;;;;;;;4984152;28;20042;-96
2021/01/25 11:56:54;;;;;;;4.47;1.20;;;;;;;;;;4993273;28;20069;-93
2021/01/25 11:59:23;;;;;;;9.32;0.90;;;;;;;;;;4997217;28;20030;-95
2021/01/25 12:01:49;;;;;;;1.02;1.02;;;;;;;;;;4974071;28;20031;-92
2021/01/25 12:04:15;;;;;;;2.97;1.30;;;;;;;;;;5006588;28;20498;-94
2021/01/25 12:06:41;;;;;;;2.63;0.65;;;;;;;;;;4991479;28;20037;-93
2021/01/25 12:09:07;;;;;;;1.83;1.23;;;;;;;;;;5004595;28;20061;-94
2021/01/25 12:11:33;;;;;;;0.60;0.57;;;;;;;;;;5000202;28;20006;-95
2021/01/25 12:14:00;;;;;;;1.35;0.85;;;;;;;;;;5402330;22;20062;-96
2021/01/25 12:16:27;;;;;;;27.52;9.43;;;;;;;;;;4961975;28;20082;-94
2021/01/25 12:18:53;;;;;;;23.15;9.43;;;;;;;;;;4965259;28;20031;-90
2021/01/25 12:21:19;;;;;;;11.55;2.78;;;;;;;;;;4970288;28;20101;-95
2021/01/25 12:23:45;;;;;;;3.05;2.65;;;;;;;;;;4970810;28;20576;-96
2021/01/25 12:26:14;;;;;;;2.97;1.92;;;;;;;;;;4969335;28;20086;-94
2021/01/25 12:28:40;;;;;;;17.05;4.43;;;;;;;;;;4994868;28;20027;-96
2021/01/25 12:31:06;;;;;;;7.35;2.72;;;;;;;;;;5253569;23;20859;-90
2021/01/25 12:33:33;;;;;;;59.17;8.20;;;;;;;;;;4950973;28;20046;-96
2021/01/25 12:36:00;;;;;;;;;;;7.90;37.80;;;;;;4949354;28;20497;-93
2021/01/25 12:38:26;;;;;;;11.13;1.55;;;;;;;;;;4957275;28;19978;-95
2021/01/25 12:40:58;;;;;;;2.38;1.98;;;;;;;;;;4958314;28;20429;-94
2021/01/25 12:43:24;;;;;;;2.45;1.23;;;;;;;;;;4960124;28;20035;-95
2021/01/25 12:45:50;;;;;;;3.05;1.08;;;;;;;;;;4942235;29;20035;-95
2021/01/25 12:48:16;;;;;;;7.47;0.63;;;;;;;;;;4955232;28;20031;-95
2021/01/25 12:50:44;;;;;;;4.00;1.67;;;;;;;;;;4959206;28;20031;-96
2021/01/25 12:53:10;;;;;;;2.50;1.88;;;;;;;;;;4943297;28;20031;-95
2021/01/25 12:55:36;;;;;;;11.77;2.00;;;;;;;;;;4960527;29;20182;-95
2021/01/25 12:58:02;;;;;;;14.00;2.45;;;;;;;;;;4954832;29;20035;-96
2021/01/25 13:00:32;;;;;;;23.50;8.93;;;;;;;;;;4969742;28;20041;-96
2021/01/25 13:02:59;;;;;;;24.05;7.32;;;;;;;;;;4952450;28;20035;-95
2021/01/25 13:05:25;;;;;;;7.85;3.35;;;;;;;;;;4957253;28;20118;-94
2021/01/25 13:07:51;;;;;;;3.13;1.83;;;;;;;;;;4956995;29;20030;-95
2021/01/25 13:10:17;;;;;;;1.02;0.65;;;;;;;;;;4957011;28;20040;-94
2021/01/25 13:12:45;;;;;;;1.00;0.90;;;;;;;;;;4948791;28;20453;-96
2021/01/25 13:15:17;;;;;;;6.57;1.35;;;7.70;37.50;;;;;;4962556;28;20028;-95
2021/01/25 13:17:43;;;;;;;7.15;2.67;;;;;;;;;;4945038;29;20023;-95
2021/01/25 13:20:11;;;;;;;7.60;2.37;;;7.80;37.30;;;;;;4994799;28;20046;-96
2021/01/25 13:25:14;;;;;;;3.53;3.00;;;7.80;58.10;;;;;;5414588;23;20374;-95
2021/01/25 13:27:40;;;;;;;6.68;5.68;;;;;;;;;;4990649;28;20177;-96
2021/01/25 13:30:07;;;;;;;7.00;6.13;;;;;;;;;;4997763;28;20050;-94
2021/01/25 13:32:36;;;;;;;2.90;2.60;;;;;;;;;;4993245;28;20034;-96
2021/01/25 13:35:04;;;;;;;7.25;2.42;;;;;;;;;;4991094;28;20041;-90
2021/01/25 13:37:30;;;;;;;6.57;2.95;;;;;;;;;;4996063;28;20036;-91
2021/01/25 13:39:58;;;;;;;8.88;2.80;;;;;;;;;;4998199;28;20006;-96
2021/01/25 13:42:23;;;;;;;;;;;8.00;36.90;;;;;;4989345;28;20031;-94
2021/01/25 13:44:49;;;;;;;4.60;2.03;;;;;;;;;;4992259;28;19909;-94
2021/01/25 13:47:23;;;;;;;5.03;1.70;;;;;;;;;;4980523;28;20047;-96
2021/01/25 13:50:08;;;;;;;0.70;0.70;;;;;;;;;;5006447;28;20046;-96
2021/01/25 13:52:34;;;;;;;2.08;1.65;;;;;;;;;;4998528;28;20249;-95
2021/01/25 14:02:47;;;;;;;1.80;1.23;;;;;;;;;;4996473;23;20054;-95
2021/01/25 14:05:16;;;;;;;2.22;1.70;;;;;;;;;;4983151;28;20039;-96
2021/01/25 14:07:42;;;;;;;7.90;3.13;;;;;;;;;;5139264;23;20539;-95
2021/01/25 14:10:09;;;;;;;4.50;3.22;;;;;;;;;;4979615;28;20039;-96
2021/01/25 14:17:56;;;;;;;4.93;1.95;;;;;;;;;;5662617;22;20068;-96
2021/01/25 14:20:24;;;;;;;9.05;3.00;;;;;;;;;;4993724;28;20038;-96
2021/01/25 14:28:03;;;;;;;10.00;4.38;;;7.50;40.40;;;;;;5731883;23;20099;-94
2021/01/25 14:30:30;;;;;;;23.85;4.57;;;;;;;;;;4998600;28;20030;-96
2021/01/25 14:32:57;;;;;;;6.40;2.28;;;;;;;;;;4989324;28;20065;-96
2021/01/25 14:35:23;;;;;;;5.05;3.42;;;;;;;;;;4999871;28;20033;-95
2021/01/25 14:40:25;;;;;;;11.00;3.13;;;;;;;;;;6012010;23;21278;-95